Impacts TAF Board INFO
FOR SITUATIONAL AWARENESS. NOT TO BE USED FOR FLIGHT PLANNING PURPOSES.
IDs:

KTPA - Tampa Intl Arpt, FL, US

Issued at 0901 UTC 21 Feb 2017
Updated at 0946 UTC 21 Feb 2017
Potential Impact None Slight Moderate High
Time0853Z 21/10Z 21/11Z 21/12Z 21/13Z 21/14Z 21/15Z 21/16Z 21/17Z 21/18Z 21/19Z 21/20Z 21/21Z 21/22Z
Type OBS PRVL PRVL PRVL PRVL PRVL PRVL PRVL PRVL PRVL PRVL PRVL PRVL PRVL
VIS 10 >6 >6 >6 >6 >6 >6 >6 >6 >6 >6 >6 >6 >6
CIG -- -- -- -- -- -- -- -- -- -- -- -- 250 250
Cover SCT SCT SCT SCT SCT SCT SCT SCT SCT SCT SCT SCT BKN BKN
FltCat VFR VFR VFR VFR VFR VFR VFR VFR VFR VFR VFR VFR VFR VFR
WX -- -- -- -- -- -- -- -- -- -- -- -- -- --
WDir 90 100 100 100 100 100 100 100 140 140 140 140 190 190
WSpd 3 5 5 5 5 5 5 5 8 8 8 8 8 8
WGst -- -- -- -- -- -- -- -- -- -- -- -- -- --

Raw TAF
KTPA 210901Z 2109/2206 10005KT P6SM FEW030 SCT250
  FM211700 14008KT P6SM FEW040 SCT250
  FM212100 19008KT P6SM SCT040 BKN250
  FM220300 14004KT P6SM SCT035 BKN250


Raw METAR
KTPA 210853Z 09003KT 10SM FEW030 SCT250 20/16 A3008 RMK AO2 SLP185 T02000156 56007
KTPA 210753Z VRB04KT 10SM FEW031 20/16 A3008 RMK AO2 SLP185 T02000156
KTPA 210653Z 10004KT 10SM FEW090 21/16 A3009 RMK AO2 SLP187 T02060161

METAR Board
Radar Display
Forecast Discussion

FOR SITUATIONAL AWARENESS. NOT TO BE USED FOR FLIGHT PLANNING PURPOSES.

Page loaded:  09:46 UTC  |   01:46 AM Pacific  |   02:46 AM Mountain  |   03:46 AM Central  |   04:46 AM Eastern

 

ADVISORIES

FORECASTS

FORECASTS

OBSERVATIONS

USER TOOLS

ABOUT US